Time;durP1;ratioP1;P1;durP2;ratioP2;P2;SDS_P1;SDS_P2;PMS_P1;PMS_P2;Temp;Humidity;BMP_temperature;BMP_pressure;BME280_temperature;BME280_humidity;BME280_pressure;Samples;Min_cycle;Max_cycle;Signal;HPM_P1;HPM_P2
2022/05/13 00:01:22;;;;;;;4.95;1.80;;;;;;;22.56;27.37;101435.13;5056068;28;20044;-74
2022/05/13 00:03:49;;;;;;;5.32;1.90;;;;;;;22.52;27.75;101439.22;5059506;28;20127;-75
2022/05/13 00:06:16;;;;;;;3.28;1.73;;;;;;;22.49;27.92;101443.19;5051462;28;20054;-74
2022/05/13 00:08:42;;;;;;;4.55;1.80;;;;;;;22.46;27.85;101434.38;5062119;28;20045;-75
2022/05/13 00:11:09;;;;;;;4.03;2.08;;;;;;;22.43;28.22;101432.78;5050622;28;20053;-75
2022/05/13 00:13:36;;;;;;;3.83;1.60;;;;;;;22.40;28.05;101431.22;5048592;28;20099;-75
2022/05/13 00:16:05;;;;;;;4.18;1.75;;;;;;;22.37;27.96;101439.84;5045106;28;20056;-74
2022/05/13 00:18:33;;;;;;;4.45;1.80;;;;;;;22.34;28.05;101436.53;5034778;28;20045;-75
2022/05/13 00:21:00;;;;;;;3.65;1.63;;;;;;;22.30;28.21;101437.91;5051390;28;20432;-74
2022/05/13 00:23:26;;;;;;;2.67;1.50;;;;;;;22.26;28.60;101434.59;5049277;28;20045;-74
2022/05/13 00:25:53;;;;;;;5.13;1.58;;;;;;;22.24;28.11;101439.41;5057975;28;20106;-75
2022/05/13 00:28:20;;;;;;;3.72;1.70;;;;;;;22.21;28.06;101439.78;5048846;28;20044;-74
2022/05/13 00:30:50;;;;;;;3.90;1.52;;;;;;;22.18;28.66;101448.38;5042743;28;20052;-74
2022/05/13 00:33:18;;;;;;;4.18;1.70;;;;;;;22.16;28.28;101442.13;5046928;28;20121;-74
2022/05/13 00:35:45;;;;;;;3.35;1.92;;;;;;;22.13;28.54;101444.38;5048995;28;20056;-74
2022/05/13 00:38:12;;;;;;;3.53;1.75;;;;;;;22.10;28.83;101441.94;5047612;28;20091;-75
2022/05/13 00:40:41;;;;;;;3.50;1.92;;;;;;;22.08;28.69;101436.56;5031263;28;20091;-75
2022/05/13 00:43:10;;;;;;;5.45;1.90;;;;;;;22.06;28.82;101437.78;5051194;28;20044;-74
2022/05/13 00:45:37;;;;;;;3.63;1.80;;;;;;;22.00;28.91;101434.59;5061368;28;20056;-74
2022/05/13 00:48:05;;;;;;;3.50;1.70;;;;;;;21.98;28.86;101431.16;5050551;28;20048;-74
2022/05/13 00:50:38;;;;;;;4.57;2.00;;;;;;;21.98;29.48;101431.16;5043998;28;20053;-75
2022/05/13 00:53:12;;;;;;;3.53;1.70;;;;;;;21.92;29.07;101417.94;5061793;28;20068;-74
2022/05/13 00:55:43;;;;;;;2.88;1.88;;;;;;;21.91;29.42;101418.09;5051715;28;20068;-74
2022/05/13 00:58:15;;;;;;;3.80;1.90;;;;;;;21.89;29.51;101415.50;5046654;28;20061;-74
2022/05/13 01:00:41;;;;;;;4.68;2.13;;;;;;;21.82;29.82;101421.84;5037784;28;20049;-74
2022/05/13 01:03:11;;;;;;;2.80;1.73;;;;;;;21.84;29.92;101417.00;5051186;28;20413;-74
2022/05/13 01:05:41;;;;;;;3.15;1.92;;;;;;;21.82;29.78;101419.09;5051548;28;20493;-74
2022/05/13 01:08:11;;;;;;;3.85;1.70;;;;;;;21.80;29.45;101416.47;5058323;28;20132;-74
2022/05/13 01:10:40;;;;;;;3.45;2.10;;;;;;;21.77;30.10;101413.16;5062412;28;20437;-75
2022/05/13 01:13:12;;;;;;;4.75;1.90;;;;;;;21.77;29.76;101416.78;5068559;28;20089;-74
2022/05/13 01:15:41;;;;;;;2.97;2.00;;;;;;;21.71;29.60;101420.22;5052838;28;20070;-75
2022/05/13 01:18:08;;;;;;;3.58;2.13;;;;;;;21.70;29.99;101424.00;5050530;28;20072;-74
2022/05/13 01:20:50;;;;;;;3.85;2.17;;;;;;;21.70;30.46;101435.06;5056282;28;20048;-74
2022/05/13 01:23:30;;;;;;;4.10;2.10;;;;;;;21.65;29.76;101429.16;5054096;28;20078;-74
2022/05/13 01:26:01;;;;;;;5.22;2.33;;;;;;;21.67;30.75;101426.19;5040472;28;20048;-75
2022/05/13 01:28:31;;;;;;;3.63;2.08;;;;;;;21.60;30.03;101423.22;5053074;28;20037;-74
2022/05/13 01:31:01;;;;;;;4.28;2.20;;;;;;;21.59;30.53;101427.88;5043801;28;20138;-74
2022/05/13 01:33:28;;;;;;;4.25;2.53;;;;;;;21.58;30.03;101434.41;5042020;28;20601;-75
2022/05/13 01:35:58;;;;;;;3.45;1.83;;;;;;;21.56;29.99;101435.63;5054510;28;20044;-74
2022/05/13 01:38:28;;;;;;;4.00;1.98;;;;;;;21.52;30.65;101432.31;5076002;28;20051;-74
2022/05/13 01:40:55;;;;;;;4.45;2.42;;;;;;;21.48;30.05;101430.03;5048846;28;20048;-75
2022/05/13 01:43:23;;;;;;;3.00;2.00;;;;;;;21.44;30.12;101421.19;5048308;28;20048;-75
2022/05/13 01:45:50;;;;;;;3.35;2.05;;;;;;;21.41;30.31;101424.28;5048520;28;20045;-75
2022/05/13 01:48:17;;;;;;;3.08;2.00;;;;;;;21.39;29.87;101419.94;5052412;28;20052;-74
2022/05/13 01:50:44;;;;;;;3.42;1.80;;;;;;;21.35;30.04;101422.13;5054625;28;20052;-74
2022/05/13 01:53:11;;;;;;;3.22;1.80;;;;;;;21.34;30.37;101422.28;5052916;28;20044;-74
2022/05/13 01:55:42;;;;;;;4.40;1.60;;;;;;;21.31;29.89;101415.19;5054214;28;20102;-74
2022/05/13 01:58:17;;;;;;;3.88;1.83;;;;;;;21.31;30.63;101423.50;5052743;28;20041;-74
2022/05/13 02:00:46;;;;;;;2.95;1.48;;;;;;;21.26;30.39;101418.44;5054463;28;20053;-75
2022/05/13 02:05:58;;;;;;;3.30;1.67;;;;;;;21.19;30.45;101422.84;5070754;28;20049;-75
2022/05/13 02:08:25;;;;;;;4.25;1.80;;;;;;;21.18;30.13;101420.22;5047873;28;20460;-75
2022/05/13 02:10:52;;;;;;;3.85;1.60;;;;;;;21.16;29.87;101433.31;5056716;28;20048;-75
2022/05/13 02:13:19;;;;;;;3.55;1.80;;;;;;;21.12;30.07;101426.38;5054660;28;20040;-75
2022/05/13 02:15:45;;;;;;;3.50;1.58;;;;;;;21.09;30.05;101422.00;5060211;28;20508;-74
2022/05/13 02:18:12;;;;;;;3.80;1.70;;;;;;;21.07;30.25;101421.31;5052560;28;20049;-74
2022/05/13 02:20:40;;;;;;;4.13;1.80;;;;;;;21.07;30.37;101425.97;5053013;28;20052;-74
2022/05/13 02:23:07;;;;;;;4.43;1.77;;;;;;;21.04;30.13;101416.09;5047280;28;20048;-75
2022/05/13 02:25:34;;;;;;;4.00;1.98;;;;;;;21.02;30.11;101422.78;5052162;28;20049;-74
2022/05/13 02:28:02;;;;;;;4.53;2.00;;;;;;;21.00;30.24;101430.41;5053103;28;20422;-74
2022/05/13 02:30:30;;;;;;;3.95;2.05;;;;;;;20.96;30.01;101429.81;5050423;28;20099;-75
2022/05/13 02:32:56;;;;;;;3.78;2.55;;;;;;;20.94;30.46;101433.75;5062166;28;20685;-75
2022/05/13 02:35:24;;;;;;;4.40;2.30;;;;;;;20.92;30.50;101438.59;5056453;28;20076;-75
2022/05/13 02:37:52;;;;;;;4.45;2.28;;;;;;;20.89;30.50;101437.00;5052418;28;20045;-74
2022/05/13 02:40:19;;;;;;;4.38;2.20;;;;;;;20.86;30.63;101440.06;5051221;28;20061;-74
2022/05/13 02:42:47;;;;;;;4.97;2.55;;;;;;;20.84;30.58;101442.09;5043000;28;20044;-74
2022/05/13 02:45:13;;;;;;;5.68;2.40;;;;;;;20.80;30.38;101438.78;5049566;28;20045;-75
2022/05/13 02:47:40;;;;;;;5.78;2.70;;;;;;;20.78;30.41;101443.59;5052130;28;20048;-75
2022/05/13 02:50:21;;;;;;;5.45;1.98;;;;;;;20.77;30.48;101441.84;5039408;28;20053;-75
2022/05/13 02:52:50;;;;;;;4.50;2.15;;;;;;;20.70;30.45;101442.63;5052387;28;20048;-75
2022/05/13 02:55:19;;;;;;;3.05;1.77;;;;;;;20.67;30.74;101451.22;5049636;28;20060;-75
2022/05/13 02:57:46;;;;;;;3.35;1.65;;;;;;;20.65;30.30;101444.97;5061684;28;20051;-75
2022/05/13 03:00:13;;;;;;;4.78;1.75;;;;;;;20.61;30.63;101449.06;5050868;28;20453;-76
2022/05/13 03:02:43;;;;;;;5.35;1.50;;;;;;;20.58;30.62;101449.38;5045374;28;20113;-75
2022/05/13 03:05:11;;;;;;;3.58;1.52;;;;;;;20.56;30.20;101454.16;5046977;28;20049;-74
2022/05/13 03:07:38;;;;;;;3.97;1.40;;;;;;;20.51;30.33;101451.84;5051267;28;20051;-74
2022/05/13 03:10:09;;;;;;;3.85;1.48;;;;;;;20.46;30.24;101448.69;5060943;28;20170;-75
2022/05/13 03:12:37;;;;;;;3.50;1.35;;;;;;;20.42;30.33;101450.88;5056403;28;20110;-74
2022/05/13 03:15:05;;;;;;;2.92;1.25;;;;;;;20.39;30.30;101453.94;5044563;28;20052;-75
2022/05/13 03:17:31;;;;;;;2.85;1.70;;;;;;;20.35;30.66;101447.00;5053026;28;20474;-74
2022/05/13 03:19:58;;;;;;;3.15;1.50;;;;;;;20.33;30.43;101439.88;5050270;28;20181;-74
2022/05/13 03:22:25;;;;;;;4.38;1.45;;;;;;;20.28;30.38;101437.56;5059319;28;20056;-75
2022/05/13 03:24:51;;;;;;;3.92;1.40;;;;;;;20.26;30.81;101433.22;5054960;28;20048;-74
2022/05/13 03:27:18;;;;;;;4.00;1.60;;;;;;;20.23;30.57;101434.38;5052171;28;20446;-75
2022/05/13 03:29:45;;;;;;;3.83;1.70;;;;;;;20.21;30.53;101439.19;5048280;28;20459;-75
2022/05/13 03:32:11;;;;;;;4.82;1.38;;;;;;;20.19;30.33;101437.59;5045378;28;20041;-74
2022/05/13 03:34:38;;;;;;;4.35;1.40;;;;;;;20.18;30.31;101438.63;5053331;28;20049;-74
2022/05/13 03:37:05;;;;;;;3.25;1.27;;;;;;;20.15;30.82;101439.78;5048175;28;20115;-75
2022/05/13 03:39:32;;;;;;;3.92;1.60;;;;;;;20.13;30.83;101442.69;5046104;28;20049;-75
2022/05/13 03:41:59;;;;;;;3.72;1.30;;;;;;;20.12;30.55;101438.19;5051025;28;20041;-75
2022/05/13 03:44:25;;;;;;;3.22;1.30;;;;;;;20.12;30.46;101446.47;5051834;28;20036;-75
2022/05/13 03:46:52;;;;;;;3.88;1.40;;;;;;;20.10;30.80;101436.59;5039987;28;20040;-75
2022/05/13 03:49:19;;;;;;;2.13;1.13;;;;;;;20.08;30.62;101436.78;5048965;28;20541;-74
2022/05/13 03:51:46;;;;;;;2.80;1.20;;;;;;;20.07;30.81;101435.03;5055981;28;20048;-75
2022/05/13 03:54:12;;;;;;;2.22;1.25;;;;;;;20.05;30.43;101439.81;5055930;28;20052;-75
2022/05/13 03:56:39;;;;;;;3.95;1.23;;;;;;;20.05;30.80;101436.19;5051853;28;20049;-75
2022/05/13 03:59:06;;;;;;;2.50;1.00;;;;;;;20.02;30.46;101437.34;5046338;28;20044;-75
2022/05/13 04:01:32;;;;;;;3.00;1.10;;;;;;;20.01;30.72;101440.28;5050981;28;20560;-75
2022/05/13 04:03:59;;;;;;;3.28;1.05;;;;;;;19.99;30.99;101437.66;5043169;28;20049;-75
2022/05/13 04:09:11;;;;;;;1.75;0.98;;;;;;;19.95;30.80;101438.97;5069995;28;20043;-74
2022/05/13 04:11:40;;;;;;;2.85;1.13;;;;;;;19.95;30.35;101429.81;5056339;28;20101;-75
2022/05/13 04:16:55;;;;;;;3.00;1.02;;;;;;;19.89;30.56;101436.81;5070357;28;20048;-75
2022/05/13 04:19:24;;;;;;;3.00;1.05;;;;;;;19.88;30.94;101440.59;5048940;28;20529;-75
2022/05/13 04:21:51;;;;;;;3.00;1.10;;;;;;;19.88;30.68;101451.59;5041547;28;20052;-74
2022/05/13 04:24:19;;;;;;;2.80;1.15;;;;;;;19.88;31.03;101447.97;5053590;28;20050;-75
2022/05/13 04:26:47;;;;;;;3.92;1.00;;;;;;;19.85;30.83;101454.66;5050950;28;20497;-75
2022/05/13 04:29:14;;;;;;;2.63;1.15;;;;;;;19.84;30.60;101460.34;5048165;28;20143;-75
2022/05/13 04:31:43;;;;;;;4.07;1.42;;;;;;;19.85;30.56;101456.56;5044967;28;20501;-74
2022/05/13 04:34:11;;;;;;;4.38;1.70;;;;;;;19.81;31.17;101466.13;5052300;28;20043;-74
2022/05/13 04:36:37;;;;;;;2.47;1.33;;;;;;;19.79;31.21;101469.03;5065463;28;20116;-74
2022/05/13 04:39:05;;;;;;;2.60;1.10;;;;;;;19.79;31.11;101471.78;5043871;28;20054;-74
2022/05/13 04:44:18;;;;;;;2.47;0.98;;;;;;;19.74;31.12;101475.00;5056833;28;20048;-75
2022/05/13 04:46:46;;;;;;;3.22;1.20;;;;;;;19.74;31.36;101463.97;5061022;28;20583;-75
2022/05/13 04:49:13;;;;;;;3.00;1.20;;;;;;;19.74;31.44;101471.38;5067004;28;20052;-74
2022/05/13 04:51:40;;;;;;;2.33;1.13;;;;;;;19.74;31.49;101472.22;5054654;28;20047;-74
2022/05/13 04:54:07;;;;;;;3.25;1.23;;;;;;;19.74;31.49;101474.13;5077328;28;20048;-75
2022/05/13 04:56:35;;;;;;;2.42;1.00;;;;;;;19.74;31.31;101482.38;5070105;28;20479;-75
2022/05/13 04:59:02;;;;;;;1.52;0.90;;;;;;;19.73;31.68;101476.00;5049692;28;20129;-74
2022/05/13 05:01:29;;;;;;;3.08;1.30;;;;;;;19.73;31.57;101473.25;5053022;28;20051;-74
2022/05/13 05:03:55;;;;;;;1.77;1.20;;;;;;;19.74;31.54;101474.13;5056525;28;20446;-74
2022/05/13 05:06:23;;;;;;;4.25;1.45;;;;;;;19.74;31.64;101480.50;5065085;28;20048;-74
2022/05/13 05:08:50;;;;;;;4.78;1.30;;;;;;;19.76;32.04;101480.34;5055165;28;20048;-74
2022/05/13 05:11:19;;;;;;;3.45;1.40;;;;;;;19.75;31.76;101485.00;5051418;28;20048;-75
2022/05/13 05:13:49;;;;;;;3.13;1.15;;;;;;;19.77;31.65;101493.97;5054965;28;20044;-74
2022/05/13 05:16:21;;;;;;;2.88;1.10;;;;;;;19.75;31.83;101479.47;5057589;28;20048;-74
2022/05/13 05:18:50;;;;;;;3.47;1.40;;;;;;;19.77;31.99;101493.97;5056966;28;20086;-74
2022/05/13 05:21:17;;;;;;;3.65;1.20;;;;;;;19.81;31.61;101485.41;5054754;28;20056;-74
2022/05/13 05:23:44;;;;;;;2.50;1.35;;;;;;;19.87;32.15;101496.72;5058781;28;20053;-74
2022/05/13 05:26:11;;;;;;;4.63;1.40;;;;;;;19.94;31.97;101500.63;5044154;28;20106;-74
2022/05/13 05:28:38;;;;;;;4.07;1.58;;;;;;;20.03;31.85;101509.88;5046382;28;20391;-74
2022/05/13 05:31:07;;;;;;;2.55;1.23;;;;;;;20.17;31.79;101505.81;5049123;28;20057;-74
2022/05/13 05:33:34;;;;;;;3.10;1.65;;;;;;;20.25;32.25;101512.34;5056846;28;20052;-74
2022/05/13 05:36:00;;;;;;;3.55;1.40;;;;;;;20.35;31.75;101501.28;5058010;28;20126;-74
2022/05/13 05:38:27;;;;;;;3.30;1.45;;;;;;;20.42;31.87;101508.81;5054118;28;20064;-74
2022/05/13 05:40:55;;;;;;;4.40;1.40;;;;;;;20.47;31.49;101516.63;5057385;28;20049;-74
2022/05/13 05:43:22;;;;;;;2.80;1.33;;;;;;;20.50;31.33;101513.59;5052870;28;20052;-74
2022/05/13 05:45:49;;;;;;;3.40;1.60;;;;;;;20.51;31.40;101520.81;5054586;28;20044;-75
2022/05/13 05:48:22;;;;;;;4.00;1.30;;;;;;;20.52;31.54;101520.69;5063506;28;20045;-74
2022/05/13 05:50:54;;;;;;;4.25;1.58;;;;;;;20.50;31.36;101517.22;5076353;28;20048;-75
2022/05/13 05:58:54;;;;;;;3.53;1.55;;;;;;;20.39;31.68;101524.78;5066319;28;20045;-75
2022/05/13 06:01:20;;;;;;;3.72;1.38;;;;;;;20.40;31.77;101530.16;5051375;28;20044;-75
2022/05/13 06:03:47;;;;;;;4.07;1.50;;;;;;;20.44;31.84;101523.31;5062759;28;20052;-75
2022/05/13 06:06:15;;;;;;;4.32;1.50;;;;;;;20.51;32.07;101520.81;5055084;28;20040;-75
2022/05/13 06:08:41;;;;;;;4.10;1.40;;;;;;;20.59;31.89;101534.72;5044944;28;20472;-74
2022/05/13 06:11:09;;;;;;;2.92;1.40;;;;;;;20.69;32.18;101538.31;5050280;28;20075;-76
2022/05/13 06:13:37;;;;;;;3.28;1.23;;;;;;;20.81;32.29;101548.16;5051525;28;20098;-75
2022/05/13 06:16:07;;;;;;;3.75;1.35;;;;;;;20.93;31.70;101548.81;5045690;28;20052;-75
2022/05/13 06:18:36;;;;;;;4.22;1.25;;;;;;;21.04;31.66;101545.00;5053481;28;20047;-76
2022/05/13 06:21:03;;;;;;;3.33;1.35;;;;;;;21.16;31.47;101541.03;5054236;28;20117;-76
2022/05/13 06:23:30;;;;;;;3.47;1.50;;;;;;;21.26;31.60;101551.00;5052622;28;20044;-75
2022/05/13 06:25:56;;;;;;;5.03;1.60;;;;;;;21.36;31.48;101544.53;5053643;28;20053;-76
2022/05/13 06:28:23;;;;;;;2.65;1.30;;;;;;;21.47;31.34;101555.38;5053277;28;20041;-75
2022/05/13 06:30:50;;;;;;;4.10;1.63;;;;;;;21.57;31.71;101553.44;5062087;28;20492;-75
2022/05/13 06:33:16;;;;;;;3.08;1.33;;;;;;;21.67;31.45;101554.19;5051829;28;20056;-75
2022/05/13 06:35:43;;;;;;;3.22;1.40;;;;;;;21.78;31.45;101553.09;5038484;28;20558;-75
2022/05/13 06:38:22;;;;;;;4.35;1.50;;;;;;;21.91;31.10;101554.44;5043797;28;20111;-76
2022/05/13 06:40:51;;;;;;;4.03;1.52;;;;;;;21.97;31.29;101556.63;5050327;28;20061;-72
2022/05/13 06:43:18;;;;;;;3.55;1.48;;;;;;;22.08;30.91;101566.53;5051325;28;20057;-72
2022/05/13 06:45:45;;;;;;;4.32;1.60;;;;;;;22.18;31.20;101564.56;5049599;28;20044;-70
2022/05/13 06:48:12;;;;;;;5.18;1.73;;;;;;;22.28;30.54;101565.34;5051413;28;20050;-70
2022/05/13 06:50:42;;;;;;;6.50;1.77;;;;;;;22.36;30.66;101562.63;5052567;28;20428;-71
2022/05/13 06:53:10;;;;;;;3.95;1.40;;;;;;;22.46;30.69;101561.66;5052310;28;20098;-70
2022/05/13 06:55:39;;;;;;;5.10;1.30;;;;;;;22.54;30.68;101562.59;5053506;28;20048;-70
2022/05/13 06:58:06;;;;;;;4.18;1.27;;;;;;;22.63;30.88;101566.28;5052444;28;20513;-70
2022/05/13 07:00:33;;;;;;;2.63;1.02;;;;;;;22.70;30.74;101561.81;5054242;28;20049;-70
2022/05/13 07:03:00;;;;;;;4.20;1.50;;;;;;;22.80;30.52;101570.03;5058077;28;20049;-71
2022/05/13 07:05:27;;;;;;;5.00;1.70;;;;;;;22.89;30.51;101580.13;5050811;28;20138;-72
2022/05/13 07:07:54;;;;;;;3.80;1.50;;;;;;;22.98;30.09;101581.88;5040380;28;20114;-71
2022/05/13 07:10:21;;;;;;;4.30;1.70;;;;;;;23.06;30.07;101577.25;5077916;28;20065;-75
2022/05/13 07:12:47;;;;;;;4.05;1.23;;;;;;;23.15;29.66;101584.56;5071495;28;20114;-75
2022/05/13 07:15:17;;;;;;;4.53;1.58;;;;;;;23.26;29.24;101588.94;5055738;28;20051;-77
2022/05/13 07:17:44;;;;;;;3.58;1.52;;;;;;;23.29;29.17;101596.94;5052185;28;20093;-76
2022/05/13 07:20:13;;;;;;;3.65;1.30;;;;;;;23.37;29.04;101598.88;5054977;28;20041;-75
2022/05/13 07:22:40;;;;;;;4.38;1.50;;;;;;;23.39;28.96;101591.28;5053304;28;20477;-75
2022/05/13 07:25:08;;;;;;;2.72;1.27;;;;;;;23.41;29.00;101597.50;5057475;28;20052;-75
2022/05/13 07:27:34;;;;;;;3.28;1.40;;;;;;;23.42;29.00;101597.31;5056155;28;20452;-75
2022/05/13 07:30:02;;;;;;;2.92;1.33;;;;;;;23.44;29.40;101606.34;5059224;28;20045;-74
2022/05/13 07:32:28;;;;;;;2.78;1.40;;;;;;;23.45;28.92;101608.09;5052525;28;20052;-74
2022/05/13 07:34:55;;;;;;;3.47;1.40;;;;;;;23.47;29.22;101605.16;5061666;28;20048;-75
2022/05/13 07:37:22;;;;;;;5.13;1.58;;;;;;;23.48;29.31;101604.09;5047179;28;20044;-75
2022/05/13 07:42:35;;;;;;;6.22;1.50;;;;;;;23.54;29.12;101611.78;5055742;28;20049;-75
2022/05/13 07:45:02;;;;;;;4.70;1.48;;;;;;;23.64;29.27;101606.94;5048594;28;20498;-76
2022/05/13 07:47:29;;;;;;;3.00;1.20;;;;;;;23.72;29.07;101612.50;5047955;28;20094;-76
2022/05/13 07:49:56;;;;;;;3.45;1.25;;;;;;;23.83;29.07;101611.31;5052279;28;20463;-75
2022/05/13 07:52:24;;;;;;;4.43;1.55;;;;;;;23.94;28.94;101602.69;5054277;28;20059;-76
2022/05/13 07:54:51;;;;;;;3.85;1.30;;;;;;;24.07;29.14;101604.94;5048546;28;20117;-76
2022/05/13 07:57:17;;;;;;;3.67;1.20;;;;;;;24.18;29.06;101601.84;5048191;28;20049;-75
2022/05/13 08:02:30;;;;;;;5.45;1.45;;;;;;;24.43;28.19;101600.84;5070688;28;20051;-74
2022/05/13 08:04:57;;;;;;;2.50;1.08;;;;;;;24.55;28.27;101610.53;5050237;28;20120;-77
2022/05/13 08:07:23;;;;;;;4.82;1.38;;;;;;;24.69;28.24;101608.09;5051443;28;20482;-77
2022/05/13 08:09:50;;;;;;;4.50;1.52;;;;;;;24.80;27.86;101613.25;5045703;28;20052;-77
2022/05/13 08:12:17;;;;;;;4.68;1.40;;;;;;;24.90;27.65;101612.03;5056290;28;20049;-77
2022/05/13 08:14:43;;;;;;;4.63;1.50;;;;;;;24.99;27.52;101608.22;5054004;28;20044;-77
2022/05/13 08:17:10;;;;;;;2.72;1.63;;;;;;;25.09;27.70;101612.72;5059880;28;20049;-77
2022/05/13 08:19:37;;;;;;;3.33;1.30;;;;;;;25.16;27.19;101610.94;5056363;28;20067;-77
2022/05/13 08:22:05;;;;;;;4.22;1.60;;;;;;;25.24;27.57;101614.56;5056734;28;20044;-77
2022/05/13 08:24:32;;;;;;;3.97;1.23;;;;;;;25.30;26.99;101613.84;5057159;28;20332;-78
2022/05/13 08:26:58;;;;;;;3.78;1.30;;;;;;;25.36;26.42;101620.59;5063069;28;20106;-77
2022/05/13 08:29:25;;;;;;;3.40;1.23;;;;;;;25.38;26.63;101616.56;5065202;28;20663;-77
2022/05/13 08:31:51;;;;;;;3.92;1.50;;;;;;;25.42;26.31;101614.31;5062609;28;20059;-77
2022/05/13 08:34:18;;;;;;;2.92;1.45;;;;;;;25.42;26.48;101622.66;5061954;28;20044;-77
2022/05/13 08:36:46;;;;;;;4.30;1.48;;;;;;;25.43;25.82;101618.84;5062276;28;20057;-77
2022/05/13 08:39:12;;;;;;;3.42;1.27;;;;;;;25.40;26.29;101620.06;5094706;28;20040;-77
2022/05/13 08:41:56;;;;;;;3.80;1.40;;;;;;;25.40;25.74;101625.63;5067138;28;20056;-78
2022/05/13 08:44:25;;;;;;;4.72;1.33;;;;;;;25.37;25.95;101616.75;5062385;28;20046;-77
2022/05/13 08:47:07;;;;;;;2.65;1.33;;;;;;;25.36;26.33;101621.47;5060233;28;20055;-77
2022/05/13 08:49:53;;;;;;;2.65;1.20;;;;;;;25.35;26.03;101621.66;5068809;28;20040;-77
2022/05/13 08:55:24;;;;;;;3.95;1.45;;;;;;;25.36;25.95;101627.03;5079873;28;20109;-77
2022/05/13 08:57:51;;;;;;;3.85;1.30;;;;;;;25.36;26.63;101640.06;5070823;28;20070;-77
2022/05/13 09:00:32;;;;;;;3.78;1.52;;;;;;;25.40;26.12;101633.09;5059077;28;20060;-77
2022/05/13 09:03:11;;;;;;;4.83;1.63;;;;;;;25.36;26.13;101635.38;5046734;28;20049;-64
2022/05/13 09:05:47;;;;;;;4.20;1.63;;;;;;;25.37;26.15;101634.31;5049938;28;20335;-66
2022/05/13 09:08:14;;;;;;;4.20;1.20;;;;;;;25.33;26.26;101629.28;5059060;28;20099;-66
2022/05/13 09:11:13;;;;;;;5.07;1.50;;;;;;;25.28;25.98;101629.81;5056451;28;20068;-66
2022/05/13 09:14:17;;;;;;;2.70;1.20;;;;;;;25.26;26.05;101629.16;5042774;28;20044;-67
2022/05/13 09:17:13;;;;;;;3.08;1.23;;;;;;;25.24;25.85;101627.59;5055291;28;20056;-66
2022/05/13 09:19:53;;;;;;;2.90;1.30;;;;;;;25.23;26.20;101629.50;5056945;28;20044;-66
2022/05/13 09:22:20;;;;;;;3.22;1.40;;;;;;;25.22;26.11;101624.97;5052307;28;20052;-66
2022/05/13 09:24:46;;;;;;;4.07;1.33;;;;;;;25.23;26.69;101629.50;5055041;28;20057;-67
2022/05/13 09:27:51;;;;;;;2.72;1.20;;;;;;;25.26;26.34;101631.06;5054758;28;20090;-66
2022/05/13 09:30:28;;;;;;;2.97;1.23;;;;;;;25.28;26.47;101624.25;5053009;28;20041;-67
2022/05/13 09:32:54;;;;;;;4.25;1.50;;;;;;;25.28;26.16;101626.19;5045727;28;20047;-67
2022/05/13 09:35:35;;;;;;;4.93;1.45;;;;;;;25.33;26.08;101632.94;5057064;28;20472;-67
2022/05/13 09:38:18;;;;;;;7.00;1.73;;;;;;;25.33;26.08;101635.72;5051787;28;20047;-67
2022/05/13 09:41:01;;;;;;;4.68;1.35;;;;;;;25.31;25.68;101623.03;5048456;28;20053;-67
2022/05/13 09:43:37;;;;;;;2.05;0.98;;;;;;;25.31;26.32;101632.25;5045206;28;20328;-62
2022/05/13 09:46:32;;;;;;;2.42;1.33;;;;;;;25.33;25.88;101638.50;5051146;28;20076;-66
2022/05/13 09:49:19;;;;;;;3.35;1.20;;;;;;;25.33;26.02;101621.81;5044504;28;20098;-67
2022/05/13 09:51:59;;;;;;;3.70;1.08;;;;;;;25.36;25.67;101624.25;5044825;28;20048;-66
2022/05/13 09:54:34;;;;;;;4.65;1.30;;;;;;;25.39;25.61;101636.91;5057118;28;20549;-66
2022/05/13 09:57:27;;;;;;;4.03;1.55;;;;;;;25.38;25.54;101629.59;5055173;28;21557;-67
2022/05/13 10:00:00;;;;;;;3.75;1.23;;;;;;;25.38;25.68;101632.38;5059729;28;20382;-66
2022/05/13 10:02:39;;;;;;;3.67;1.10;;;;;;;25.44;25.63;101620.56;5071230;28;20101;-66
2022/05/13 10:05:17;;;;;;;2.00;0.88;;;;;;;25.48;26.09;101624.69;5047901;28;20041;-67
2022/05/13 10:07:51;;;;;;;4.30;1.20;;;;;;;25.53;26.02;101630.56;5054633;28;20060;-66
2022/05/13 10:16:02;;;;;;;2.90;1.08;;;;;;;25.68;25.26;101631.59;5068465;28;20123;-66
2022/05/13 10:18:34;;;;;;;2.30;1.10;;;;;;;25.76;25.45;101627.91;5057118;28;20063;-66
2022/05/13 10:21:14;;;;;;;3.60;1.20;;;;;;;25.81;25.43;101627.34;5052310;28;20106;-66
2022/05/13 10:23:57;;;;;;;2.88;1.08;;;;;;;25.87;25.00;101630.25;5067060;28;20036;-66
2022/05/13 10:26:29;;;;;;;2.83;1.13;;;;;;;25.91;24.94;101619.63;5070027;28;20048;-66
2022/05/13 10:28:58;;;;;;;;;;;;;;;25.67;25.77;101629.88;5049695;28;20071;-66
2022/05/13 10:31:28;;;;;;;3.92;0.80;;;;;;;25.98;25.54;101629.84;5045778;28;19951;-67
2022/05/13 10:34:14;;;;;;;2.58;0.88;;;;;;;26.01;25.02;101632.28;5057648;28;20052;-67
2022/05/13 10:36:58;;;;;;;2.30;0.82;;;;;;;26.06;24.60;101631.69;5057986;28;20109;-67
2022/05/13 10:40:00;;;;;;;2.80;0.90;;;;;;;26.07;24.33;101636.22;5041082;28;20482;-67
2022/05/13 10:42:35;;;;;;;1.88;0.88;;;;;;;26.08;24.15;101646.31;5076953;28;20112;-69
2022/05/13 10:45:08;;;;;;;4.00;0.90;;;;;;;26.07;24.69;101642.66;5041071;28;20095;-66
2022/05/13 10:48:17;;;;;;;2.80;1.00;;;;;;;26.04;24.62;101640.22;5083698;28;20076;-67
2022/05/13 10:50:56;;;;;;;1.95;1.00;;;;;;;26.11;24.09;101638.44;5030569;28;20051;-67
2022/05/13 10:53:47;;;;;;;2.10;0.80;;;;;;;26.13;24.27;101635.47;5062204;28;20036;-67
2022/05/13 10:56:28;;;;;;;3.13;1.00;;;;;;;26.12;24.36;101642.09;5045663;28;20052;-67
2022/05/13 10:59:21;;;;;;;3.22;1.13;;;;;;;26.08;24.54;101640.75;5082692;28;20106;-68
2022/05/13 11:02:05;;;;;;;;;;;;;;;25.79;25.03;101633.09;5039840;28;20110;-67
2022/05/13 11:04:51;;;;;;;2.30;0.75;;;;;;;26.07;23.36;101637.09;5054532;28;19927;-67
2022/05/13 11:07:39;;;;;;;3.42;0.90;;;;;;;26.09;23.62;101626.66;5041118;28;20070;-67
2022/05/13 11:10:25;;;;;;;3.05;0.80;;;;;;;26.05;23.62;101628.03;5051708;28;20048;-67
2022/05/13 11:13:11;;;;;;;3.22;0.93;;;;;;;26.02;23.70;101633.13;5053516;28;20048;-67
2022/05/13 11:15:47;;;;;;;2.50;1.00;;;;;;;25.99;23.98;101633.50;5053455;28;20056;-67
2022/05/13 11:18:38;;;;;;;2.05;0.88;;;;;;;25.95;23.73;101629.31;5061362;28;20036;-67
2022/05/13 11:21:36;;;;;;;3.45;1.00;;;;;;;25.88;24.03;101620.00;5066172;28;20640;-67
2022/05/13 11:27:18;;;;;;;3.17;1.02;;;;;;;25.77;24.23;101633.28;5068756;28;20055;-67
2022/05/13 11:29:53;;;;;;;2.20;1.00;;;;;;;25.84;23.75;101627.00;5051240;28;20460;-67
2022/05/13 11:32:31;;;;;;;2.83;0.85;;;;;;;25.82;23.48;101627.16;5052017;28;20044;-67
2022/05/13 11:35:09;;;;;;;2.35;0.90;;;;;;;25.77;24.05;101635.22;5060558;28;20056;-67
2022/05/13 11:37:39;;;;;;;3.33;1.13;;;;;;;25.77;24.21;101640.78;5053922;28;20076;-67
2022/05/13 11:40:28;;;;;;;2.03;1.10;;;;;;;25.75;23.60;101634.50;5052400;28;20063;-68
2022/05/13 11:43:20;;;;;;;2.22;0.88;;;;;;;25.74;23.85;101638.34;5049920;28;20505;-67
2022/05/13 11:46:01;;;;;;;2.28;1.02;;;;;;;25.74;23.92;101638.34;5041022;28;20048;-67
2022/05/13 11:48:33;;;;;;;3.70;1.00;;;;;;;25.71;24.07;101639.56;5053569;28;20131;-67
2022/05/13 11:51:15;;;;;;;2.72;1.10;;;;;;;25.70;23.53;101635.03;5049345;28;20049;-67
2022/05/13 11:53:45;;;;;;;1.92;0.90;;;;;;;25.66;23.86;101628.13;5047453;28;20052;-67
2022/05/13 11:56:34;;;;;;;2.38;0.90;;;;;;;25.70;23.97;101631.41;5051609;28;20050;-67
2022/05/13 11:59:03;;;;;;;3.05;0.93;;;;;;;25.71;23.78;101634.00;5052131;28;20045;-67
2022/05/13 12:01:38;;;;;;;3.45;1.08;;;;;;;25.77;23.48;101632.44;5055877;28;20558;-67
2022/05/13 12:04:11;;;;;;;3.28;1.17;;;;;;;25.79;23.62;101641.44;5054425;28;20053;-67
2022/05/13 12:07:01;;;;;;;3.00;0.93;;;;;;;25.78;23.96;101645.25;5050537;28;20557;-68
2022/05/13 12:09:44;;;;;;;2.70;0.80;;;;;;;25.83;23.94;101642.81;5056163;28;20040;-67
2022/05/13 12:12:10;;;;;;;2.53;0.90;;;;;;;25.81;23.82;101646.81;5071832;28;20437;-67
2022/05/13 12:14:50;;;;;;;2.13;1.10;;;;;;;25.87;23.78;101633.03;5058006;28;20048;-67
2022/05/13 12:17:41;;;;;;;2.97;1.00;;;;;;;25.86;23.76;101639.66;5069845;28;20053;-67
2022/05/13 12:20:25;;;;;;;2.72;1.10;;;;;;;25.87;23.66;101641.38;5040429;28;20052;-67